Time;durP1;ratioP1;P1;durP2;ratioP2;P2;SDS_P1;SDS_P2;PMS_P1;PMS_P2;Temp;Humidity;BMP_temperature;BMP_pressure;BME280_temperature;BME280_humidity;BME280_pressure;Samples;Min_cycle;Max_cycle;Signal;HPM_P1;HPM_P2
2023/09/20 00:02:21;;;;;;;3.95;1.90;;;;;;;;;;4974321;28;20072;-68
2023/09/20 00:04:47;;;;;;;3.67;2.08;;;;;;;;;;4975712;28;20042;-68
2023/09/20 00:07:13;;;;;;;4.95;2.00;;;;;;;;;;4974195;28;20038;-68
2023/09/20 00:09:39;;;;;;;4.63;1.90;;;;;;;;;;4970191;28;20543;-68
2023/09/20 00:12:05;;;;;;;3.70;1.90;;;;;;;;;;4980243;28;20037;-69
2023/09/20 00:14:30;;;;;;;9.80;2.40;;;;;;;;;;4976203;28;20022;-68
2023/09/20 00:16:55;;;;;;;4.75;2.08;;;;;;;;;;4974783;28;20042;-68
2023/09/20 00:19:21;;;;;;;5.57;1.98;;;;;;;;;;4976903;28;20038;-68
2023/09/20 00:21:47;;;;;;;8.90;2.30;;;;;;;;;;4972686;28;20046;-68
2023/09/20 00:24:12;;;;;;;6.97;2.00;;;;;;;;;;4977864;28;20496;-68
2023/09/20 00:26:38;;;;;;;7.57;2.00;;;;;;;;;;4972668;28;20072;-68
2023/09/20 00:29:06;;;;;;;7.60;2.17;;;;;;;;;;4974679;28;20062;-68
2023/09/20 00:31:32;;;;;;;3.25;1.73;;;;;;;;;;4974200;28;20034;-68
2023/09/20 00:33:58;;;;;;;4.00;1.90;;;;;;;;;;4975982;28;20069;-68
2023/09/20 00:36:24;;;;;;;3.58;2.08;;;;;;;;;;4974355;28;20108;-68
2023/09/20 00:38:49;;;;;;;4.93;2.45;;;;;;;;;;4975725;28;20030;-68
2023/09/20 00:41:15;;;;;;;7.65;3.30;;;;;;;;;;4976155;28;20432;-68
2023/09/20 00:43:41;;;;;;;7.00;3.03;;;;;;;;;;4983842;28;20081;-68
2023/09/20 00:46:09;;;;;;;10.57;4.10;;;;;;;;;;4982296;28;20125;-68
2023/09/20 00:48:38;;;;;;;11.95;4.97;;;;;;;;;;4974604;28;20054;-68
2023/09/20 00:51:05;;;;;;;11.23;4.43;;;;;;;;;;4974432;28;20227;-68
2023/09/20 00:53:31;;;;;;;13.75;4.70;;;;;;;;;;4974001;28;20030;-68
2023/09/20 00:55:58;;;;;;;8.70;4.32;;;;;;;;;;4968513;28;20421;-68
2023/09/20 00:58:23;;;;;;;7.68;3.78;;;;;;;;;;4974537;28;20038;-68
2023/09/20 01:00:53;;;;;;;8.85;3.85;;;;;;;;;;4974842;28;20038;-68
2023/09/20 01:03:20;;;;;;;10.52;4.03;;;;;;;;;;4970967;28;20031;-68
2023/09/20 01:05:47;;;;;;;13.95;3.20;;;;;;;;;;4973880;28;20030;-68
2023/09/20 01:08:12;;;;;;;8.50;3.40;;;;;;;;;;4979262;28;20031;-68
2023/09/20 01:10:38;;;;;;;7.45;2.92;;;;;;;;;;4974905;28;20050;-68
2023/09/20 01:13:05;;;;;;;8.27;2.85;;;;;;;;;;4974649;28;20118;-68
2023/09/20 01:15:33;;;;;;;5.22;2.50;;;;;;;;;;4973662;28;20042;-68
2023/09/20 01:17:59;;;;;;;4.57;2.35;;;;;;;;;;4970266;28;20552;-68
2023/09/20 01:20:25;;;;;;;5.60;2.17;;;;;;;;;;4975268;28;20066;-69
2023/09/20 01:22:54;;;;;;;5.00;2.72;;;;;;;;;;4972881;28;20134;-68
2023/09/20 01:25:29;;;;;;;6.90;2.05;;;;;;;;;;4972119;28;20441;-69
2023/09/20 01:28:00;;;;;;;6.85;2.70;;;;;;;;;;4974416;28;20043;-68
2023/09/20 01:30:28;;;;;;;5.15;2.10;;;;;;;;;;4973142;28;20042;-68
2023/09/20 01:33:00;;;;;;;4.80;2.10;;;;;;;;;;4976217;28;20030;-68
2023/09/20 01:35:27;;;;;;;7.38;2.30;;;;;;;;;;4980304;28;20034;-68
2023/09/20 01:37:55;;;;;;;6.95;2.28;;;;;;;;;;4973520;28;20484;-68
2023/09/20 01:40:23;;;;;;;3.50;1.98;;;;;;;;;;4973941;28;20070;-68
2023/09/20 01:42:50;;;;;;;4.22;1.77;;;;;;;;;;4973991;28;20054;-68
2023/09/20 01:45:19;;;;;;;7.97;2.03;;;;;;;;;;4971447;28;20034;-69
2023/09/20 01:47:49;;;;;;;4.13;2.10;;;;;;;;;;4975036;28;20037;-68
2023/09/20 01:50:22;;;;;;;3.70;1.73;;;;;;;;;;4973109;28;20050;-68
2023/09/20 01:52:49;;;;;;;8.00;1.90;;;;;;;;;;4966247;28;20050;-68
2023/09/20 01:55:17;;;;;;;7.20;2.05;;;;;;;;;;4972063;28;20512;-68
2023/09/20 01:57:45;;;;;;;5.88;2.22;;;;;;;;;;4973436;28;20066;-68
2023/09/20 02:00:49;;;;;;;7.78;2.30;;;;;;;;;;4971923;28;20068;-68
2023/09/20 02:03:16;;;;;;;6.20;1.90;;;;;;;;;;4973570;28;20557;-68
2023/09/20 02:05:44;;;;;;;5.07;2.15;;;;;;;;;;4976413;28;20069;-68
2023/09/20 02:08:09;;;;;;;4.78;1.77;;;;;;;;;;4976796;28;20045;-68
2023/09/20 02:10:39;;;;;;;6.07;2.10;;;;;;;;;;4994141;28;20044;-68
2023/09/20 02:13:05;;;;;;;5.20;2.30;;;;;;;;;;4982322;28;20639;-68
2023/09/20 02:15:34;;;;;;;3.13;2.30;;;;;;;;;;4974348;28;20531;-68
2023/09/20 02:18:00;;;;;;;4.70;1.80;;;;;;;;;;4969863;28;20082;-68
2023/09/20 02:20:25;;;;;;;3.65;2.15;;;;;;;;;;4974566;28;20046;-68
2023/09/20 02:22:53;;;;;;;8.40;2.00;;;;;;;;;;4973256;28;20042;-68
2023/09/20 02:25:22;;;;;;;6.80;2.20;;;;;;;;;;4975059;28;20042;-68
2023/09/20 02:27:47;;;;;;;6.07;2.30;;;;;;;;;;4973788;28;20050;-68
2023/09/20 02:30:19;;;;;;;5.68;2.15;;;;;;;;;;4971999;28;20026;-68
2023/09/20 02:32:51;;;;;;;7.95;1.92;;;;;;;;;;4974994;28;20042;-68
2023/09/20 02:35:17;;;;;;;4.50;1.90;;;;;;;;;;4971169;28;20058;-68
2023/09/20 02:37:43;;;;;;;4.82;2.00;;;;;;;;;;4978918;28;20074;-68
2023/09/20 02:40:28;;;;;;;5.53;2.00;;;;;;;;;;4980194;28;20054;-68
2023/09/20 02:42:55;;;;;;;8.70;2.33;;;;;;;;;;4975031;28;20053;-68
2023/09/20 02:45:22;;;;;;;3.78;1.80;;;;;;;;;;4980893;28;20065;-68
2023/09/20 02:47:48;;;;;;;6.25;2.03;;;;;;;;;;4979501;28;20031;-68
2023/09/20 02:50:16;;;;;;;7.68;1.88;;;;;;;;;;4981504;28;20046;-68
2023/09/20 02:52:44;;;;;;;5.40;2.05;;;;;;;;;;4978493;28;20049;-68
2023/09/20 02:55:12;;;;;;;4.80;2.00;;;;;;;;;;4974961;28;20038;-68
2023/09/20 02:57:38;;;;;;;3.08;1.80;;;;;;;;;;4974930;28;20066;-68
2023/09/20 03:00:15;;;;;;;5.72;1.90;;;;;;;;;;4977164;28;20041;-68
2023/09/20 03:02:47;;;;;;;5.03;2.08;;;;;;;;;;4975478;28;20034;-68
2023/09/20 03:05:15;;;;;;;4.88;1.98;;;;;;;;;;4975877;28;20073;-68
2023/09/20 03:07:42;;;;;;;6.53;2.08;;;;;;;;;;4976894;28;20069;-68
2023/09/20 03:10:12;;;;;;;3.58;2.10;;;;;;;;;;4975713;28;20038;-68
2023/09/20 03:12:39;;;;;;;7.30;2.20;;;;;;;;;;4976995;28;20069;-68
2023/09/20 03:15:07;;;;;;;5.10;2.00;;;;;;;;;;4976279;28;20038;-68
2023/09/20 03:17:33;;;;;;;4.63;1.88;;;;;;;;;;4978739;28;20514;-68
2023/09/20 03:19:58;;;;;;;4.32;2.03;;;;;;;;;;4979087;28;20046;-68
2023/09/20 03:22:23;;;;;;;4.40;2.10;;;;;;;;;;4977740;28;20046;-68
2023/09/20 03:24:51;;;;;;;3.75;2.00;;;;;;;;;;4976758;28;20050;-68
2023/09/20 03:27:16;;;;;;;6.47;2.30;;;;;;;;;;4976260;28;20565;-68
2023/09/20 03:29:46;;;;;;;5.90;2.30;;;;;;;;;;4983684;28;20038;-68
2023/09/20 03:32:14;;;;;;;4.03;2.00;;;;;;;;;;4977830;28;20046;-68
2023/09/20 03:34:40;;;;;;;4.75;2.03;;;;;;;;;;4986548;28;20105;-68
2023/09/20 03:37:09;;;;;;;3.83;1.90;;;;;;;;;;4984767;28;20128;-68
2023/09/20 03:39:40;;;;;;;4.97;1.90;;;;;;;;;;4975288;28;20057;-68
2023/09/20 03:42:07;;;;;;;5.55;2.45;;;;;;;;;;4974301;28;20053;-68
2023/09/20 03:44:32;;;;;;;5.85;2.00;;;;;;;;;;4977915;28;20026;-68
2023/09/20 03:46:59;;;;;;;2.63;1.80;;;;;;;;;;4970472;28;20542;-68
2023/09/20 03:49:24;;;;;;;5.95;2.05;;;;;;;;;;4979795;28;20081;-68
2023/09/20 03:51:50;;;;;;;8.23;2.50;;;;;;;;;;4975915;28;20054;-68
2023/09/20 03:54:16;;;;;;;6.28;2.55;;;;;;;;;;4973118;28;20054;-68
2023/09/20 03:56:41;;;;;;;5.85;2.28;;;;;;;;;;4973873;28;20054;-68
2023/09/20 03:59:07;;;;;;;4.95;2.50;;;;;;;;;;4975446;28;20039;-69
2023/09/20 04:01:35;;;;;;;6.78;2.45;;;;;;;;;;4974828;28;20424;-68
2023/09/20 04:04:00;;;;;;;4.82;2.05;;;;;;;;;;4974553;28;20129;-68
2023/09/20 04:06:29;;;;;;;3.47;1.95;;;;;;;;;;4973886;28;20113;-68
2023/09/20 04:08:55;;;;;;;6.28;2.30;;;;;;;;;;4974012;28;20031;-68
2023/09/20 04:11:21;;;;;;;9.63;2.25;;;;;;;;;;4974902;28;20035;-68
2023/09/20 04:13:46;;;;;;;5.95;2.22;;;;;;;;;;4977134;28;20129;-69
2023/09/20 04:16:12;;;;;;;3.88;2.20;;;;;;;;;;4974674;28;20560;-68
2023/09/20 04:18:37;;;;;;;5.97;2.10;;;;;;;;;;4975404;28;20036;-68
2023/09/20 04:21:04;;;;;;;6.40;2.70;;;;;;;;;;4974542;28;20739;-68
2023/09/20 04:23:32;;;;;;;5.18;2.28;;;;;;;;;;4976656;28;20030;-68
2023/09/20 04:25:57;;;;;;;6.00;2.22;;;;;;;;;;4977827;28;20041;-69
2023/09/20 04:28:23;;;;;;;6.03;2.30;;;;;;;;;;4977935;28;20034;-68
2023/09/20 04:30:48;;;;;;;6.13;2.33;;;;;;;;;;4972196;28;20050;-68
2023/09/20 04:33:13;;;;;;;4.50;2.17;;;;;;;;;;4967567;28;20056;-68
2023/09/20 04:35:40;;;;;;;7.05;2.30;;;;;;;;;;4975637;28;20035;-68
2023/09/20 04:38:05;;;;;;;4.90;2.10;;;;;;;;;;4975799;28;20069;-68
2023/09/20 04:40:30;;;;;;;5.93;2.17;;;;;;;;;;4974216;28;20528;-68
2023/09/20 04:42:56;;;;;;;4.80;2.42;;;;;;;;;;4974651;28;20065;-69
2023/09/20 04:45:22;;;;;;;3.97;2.40;;;;;;;;;;4980677;28;20050;-68
2023/09/20 04:47:48;;;;;;;5.25;2.03;;;;;;;;;;4975660;28;20026;-68
2023/09/20 04:50:15;;;;;;;6.40;2.30;;;;;;;;;;4972728;28;20039;-68
2023/09/20 04:52:41;;;;;;;5.85;2.33;;;;;;;;;;4976487;28;20074;-68
2023/09/20 04:55:10;;;;;;;7.35;2.20;;;;;;;;;;4974175;28;20042;-68
2023/09/20 04:57:36;;;;;;;6.30;2.17;;;;;;;;;;4977096;28;20571;-68
2023/09/20 05:00:14;;;;;;;7.22;2.35;;;;;;;;;;4980691;28;20053;-69
2023/09/20 05:02:41;;;;;;;9.85;2.35;;;;;;;;;;4985778;28;20038;-68
2023/09/20 05:05:06;;;;;;;5.47;2.17;;;;;;;;;;4975352;28;20039;-68
2023/09/20 05:07:33;;;;;;;5.97;2.30;;;;;;;;;;4977132;28;20034;-68
2023/09/20 05:09:58;;;;;;;8.63;2.05;;;;;;;;;;4977077;28;20066;-68
2023/09/20 05:12:24;;;;;;;8.88;2.85;;;;;;;;;;4977520;28;20073;-69
2023/09/20 05:14:49;;;;;;;7.63;2.63;;;;;;;;;;4971126;28;20065;-68
2023/09/20 05:17:14;;;;;;;3.25;2.13;;;;;;;;;;4974147;28;20583;-68
2023/09/20 05:19:40;;;;;;;6.25;2.83;;;;;;;;;;4974077;28;20046;-68
2023/09/20 05:22:06;;;;;;;5.65;2.00;;;;;;;;;;4975100;28;20142;-68
2023/09/20 05:24:31;;;;;;;5.00;2.30;;;;;;;;;;4975111;28;20038;-68
2023/09/20 05:26:57;;;;;;;7.90;2.80;;;;;;;;;;4973499;28;20532;-68
2023/09/20 05:29:23;;;;;;;6.68;2.20;;;;;;;;;;4974645;28;20050;-68
2023/09/20 05:31:49;;;;;;;5.05;1.90;;;;;;;;;;4974174;28;20049;-68
2023/09/20 05:34:15;;;;;;;3.67;2.10;;;;;;;;;;4971850;28;20061;-68
2023/09/20 05:36:43;;;;;;;4.72;2.20;;;;;;;;;;4975417;28;20039;-68
2023/09/20 05:39:08;;;;;;;5.47;2.22;;;;;;;;;;4972647;28;20033;-68
2023/09/20 05:41:34;;;;;;;3.78;2.13;;;;;;;;;;4969143;28;20705;-68
2023/09/20 05:43:59;;;;;;;4.28;2.15;;;;;;;;;;4975895;28;20042;-68
2023/09/20 05:46:25;;;;;;;5.43;2.63;;;;;;;;;;4980497;28;20046;-68
2023/09/20 05:48:51;;;;;;;5.53;2.33;;;;;;;;;;4976045;28;20042;-68
2023/09/20 05:51:17;;;;;;;7.43;2.40;;;;;;;;;;4973333;28;20034;-68
2023/09/20 05:53:42;;;;;;;4.85;2.30;;;;;;;;;;4975399;28;20500;-68
2023/09/20 05:56:10;;;;;;;5.45;2.28;;;;;;;;;;4970019;28;20078;-68
2023/09/20 05:58:36;;;;;;;4.80;2.30;;;;;;;;;;4974119;28;20101;-68
2023/09/20 06:01:01;;;;;;;6.63;2.38;;;;;;;;;;4975689;28;20038;-69
2023/09/20 06:03:27;;;;;;;5.45;2.25;;;;;;;;;;4972820;28;20046;-68
2023/09/20 06:05:52;;;;;;;5.95;2.17;;;;;;;;;;4975483;28;20037;-68
2023/09/20 06:08:17;;;;;;;5.70;2.25;;;;;;;;;;4966495;28;20136;-68
2023/09/20 06:10:44;;;;;;;4.85;2.10;;;;;;;;;;4974992;28;20066;-68
2023/09/20 06:13:10;;;;;;;4.80;2.33;;;;;;;;;;4985908;28;20502;-68
2023/09/20 06:15:37;;;;;;;5.07;2.38;;;;;;;;;;4980362;28;20042;-68
2023/09/20 06:18:03;;;;;;;7.65;2.47;;;;;;;;;;4982003;28;20032;-68
2023/09/20 06:20:28;;;;;;;6.57;2.13;;;;;;;;;;4983005;28;20026;-68
2023/09/20 06:22:54;;;;;;;3.88;2.08;;;;;;;;;;4985400;28;20037;-68
2023/09/20 06:25:20;;;;;;;6.43;2.20;;;;;;;;;;4986059;28;20123;-68
2023/09/20 06:27:50;;;;;;;5.22;1.95;;;;;;;;;;4990687;28;20197;-68
2023/09/20 06:30:17;;;;;;;4.05;1.90;;;;;;;;;;4979108;28;20454;-68
2023/09/20 06:32:44;;;;;;;7.60;2.10;;;;;;;;;;4981755;28;20034;-68
2023/09/20 06:35:10;;;;;;;4.07;1.98;;;;;;;;;;4980458;28;20035;-68
2023/09/20 06:37:36;;;;;;;4.57;1.92;;;;;;;;;;4980837;28;20133;-68
2023/09/20 06:40:03;;;;;;;5.40;1.95;;;;;;;;;;4978507;28;20090;-68
2023/09/20 06:42:29;;;;;;;5.60;2.35;;;;;;;;;;4982763;28;20052;-68
2023/09/20 06:44:55;;;;;;;3.90;2.05;;;;;;;;;;4979506;28;20077;-68
2023/09/20 06:47:24;;;;;;;4.38;2.38;;;;;;;;;;4979094;28;20058;-68
2023/09/20 06:49:50;;;;;;;5.35;2.38;;;;;;;;;;4981451;28;20053;-68
2023/09/20 06:52:16;;;;;;;4.70;2.28;;;;;;;;;;4982392;28;20044;-68
2023/09/20 06:54:41;;;;;;;4.45;2.35;;;;;;;;;;5002292;28;20128;-68
2023/09/20 06:57:07;;;;;;;4.63;1.80;;;;;;;;;;4980237;28;20726;-68
2023/09/20 06:59:33;;;;;;;4.40;1.90;;;;;;;;;;4975608;28;20038;-68
2023/09/20 07:02:00;;;;;;;4.10;1.65;;;;;;;;;;4982230;28;20042;-68
2023/09/20 07:04:25;;;;;;;4.32;1.95;;;;;;;;;;4977992;28;20104;-68
2023/09/20 07:06:55;;;;;;;4.30;1.90;;;;;;;;;;4976381;28;20035;-68
2023/09/20 07:09:21;;;;;;;2.25;1.70;;;;;;;;;;4976298;28;20027;-68
2023/09/20 07:11:48;;;;;;;3.22;1.70;;;;;;;;;;4979112;28;20055;-68
2023/09/20 07:14:14;;;;;;;3.55;1.75;;;;;;;;;;4985945;28;20137;-68
2023/09/20 07:16:40;;;;;;;7.38;2.05;;;;;;;;;;4980155;28;20066;-68
2023/09/20 07:19:05;;;;;;;4.55;2.10;;;;;;;;;;4981327;28;20523;-68
2023/09/20 07:21:37;;;;;;;3.85;2.13;;;;;;;;;;4979704;28;20042;-68
2023/09/20 07:24:08;;;;;;;4.50;1.50;;;;;;;;;;4975730;28;20027;-68
2023/09/20 07:26:33;;;;;;;2.65;1.50;;;;;;;;;;4976410;28;20018;-68
2023/09/20 07:28:59;;;;;;;4.40;1.52;;;;;;;;;;4976950;28;20085;-68
2023/09/20 07:31:26;;;;;;;5.25;1.70;;;;;;;;;;4980508;28;20096;-68
2023/09/20 07:33:54;;;;;;;5.05;1.70;;;;;;;;;;4976580;28;20030;-68
2023/09/20 07:36:19;;;;;;;3.45;1.55;;;;;;;;;;4976911;28;20114;-68
2023/09/20 07:38:45;;;;;;;5.68;1.80;;;;;;;;;;4972791;28;20116;-68
2023/09/20 07:41:17;;;;;;;2.65;1.60;;;;;;;;;;4976832;28;20057;-68
2023/09/20 07:43:43;;;;;;;2.08;1.30;;;;;;;;;;4978074;28;20035;-68
2023/09/20 07:46:09;;;;;;;3.53;1.45;;;;;;;;;;4981943;28;20130;-68
2023/09/20 07:48:44;;;;;;;2.20;1.33;;;;;;;;;;4976016;28;20113;-68
2023/09/20 07:51:11;;;;;;;2.72;1.33;;;;;;;;;;4989807;28;20019;-68
2023/09/20 07:53:37;;;;;;;2.55;1.55;;;;;;;;;;4982961;28;20094;-68
2023/09/20 07:56:04;;;;;;;3.50;1.50;;;;;;;;;;4971214;28;20042;-68
2023/09/20 07:58:36;;;;;;;3.47;1.70;;;;;;;;;;4974865;28;20042;-68
2023/09/20 08:01:12;;;;;;;4.65;1.70;;;;;;;;;;4971418;28;20068;-68
2023/09/20 08:03:50;;;;;;;5.30;1.65;;;;;;;;;;4971272;28;20039;-68
2023/09/20 08:06:17;;;;;;;3.25;1.70;;;;;;;;;;4974681;28;20033;-68
2023/09/20 08:08:42;;;;;;;2.55;1.60;;;;;;;;;;4977278;28;20037;-68
2023/09/20 08:11:08;;;;;;;3.95;1.63;;;;;;;;;;4974202;28;20060;-68
2023/09/20 08:13:33;;;;;;;7.00;2.00;;;;;;;;;;4977104;28;20074;-68
2023/09/20 08:16:02;;;;;;;4.32;1.70;;;;;;;;;;4970644;28;20042;-68
2023/09/20 08:21:12;;;;;;;5.78;1.90;;;;;;;;;;4976577;28;20029;-68
2023/09/20 09:02:14;;;;;;;2.25;1.48;;;;;;;;;;4973681;28;20053;-69
2023/09/20 09:04:41;;;;;;;4.15;1.95;;;;;;;;;;4973673;28;20524;-69
2023/09/20 09:07:06;;;;;;;6.65;1.90;;;;;;;;;;4973160;28;20045;-69
2023/09/20 09:09:32;;;;;;;2.17;1.50;;;;;;;;;;4971134;28;20464;-69
2023/09/20 09:12:00;;;;;;;2.33;1.70;;;;;;;;;;4986037;28;20044;-69
2023/09/20 09:14:26;;;;;;;4.57;1.90;;;;;;;;;;4985922;28;20077;-69
2023/09/20 09:17:03;;;;;;;1.55;1.20;;;;;;;;;;4987096;28;20034;-68
2023/09/20 09:19:29;;;;;;;4.47;1.77;;;;;;;;;;4973386;28;20038;-68
2023/09/20 09:21:56;;;;;;;3.85;1.60;;;;;;;;;;4976685;28;20097;-68
2023/09/20 09:24:21;;;;;;;4.65;2.15;;;;;;;;;;4973532;28;22726;-68
2023/09/20 09:26:47;;;;;;;2.67;1.58;;;;;;;;;;4974667;28;20503;-68
2023/09/20 09:29:18;;;;;;;4.65;1.90;;;;;;;;;;4973639;28;20461;-68
2023/09/20 09:31:50;;;;;;;4.25;1.70;;;;;;;;;;4974290;28;20126;-69
2023/09/20 09:34:21;;;;;;;3.35;1.63;;;;;;;;;;4971811;28;20139;-69
2023/09/20 09:36:47;;;;;;;3.05;1.60;;;;;;;;;;4974600;28;20606;-68
2023/09/20 09:39:14;;;;;;;3.25;1.20;;;;;;;;;;4972903;28;20037;-69
2023/09/20 09:41:43;;;;;;;2.03;1.23;;;;;;;;;;4968687;28;20059;-68
2023/09/20 09:44:10;;;;;;;5.22;1.75;;;;;;;;;;4976911;28;20050;-69
2023/09/20 09:46:38;;;;;;;2.05;1.70;;;;;;;;;;4969647;28;20067;-68
2023/09/20 09:49:10;;;;;;;2.50;1.52;;;;;;;;;;4977010;28;20155;-69
2023/09/20 09:51:40;;;;;;;2.15;1.80;;;;;;;;;;4977439;28;20420;-68
2023/09/20 09:54:07;;;;;;;4.13;1.70;;;;;;;;;;4974118;28;20110;-68
2023/09/20 09:56:33;;;;;;;2.70;1.38;;;;;;;;;;4970972;28;20038;-69
2023/09/20 09:58:58;;;;;;;2.53;1.65;;;;;;;;;;4974737;28;20484;-68
2023/09/20 10:01:27;;;;;;;3.75;1.42;;;;;;;;;;4973420;28;20035;-69
2023/09/20 10:03:53;;;;;;;2.97;1.75;;;;;;;;;;4972098;28;20042;-69
2023/09/20 10:06:25;;;;;;;4.53;1.75;;;;;;;;;;4972523;28;20037;-69
2023/09/20 10:08:54;;;;;;;4.63;1.63;;;;;;;;;;4974055;28;20026;-68
2023/09/20 10:11:25;;;;;;;2.00;1.30;;;;;;;;;;4973505;28;20039;-68
2023/09/20 10:13:51;;;;;;;4.30;1.48;;;;;;;;;;4976659;28;20515;-68
2023/09/20 10:16:18;;;;;;;2.95;1.30;;;;;;;;;;4980483;28;20058;-69
2023/09/20 10:18:56;;;;;;;3.90;1.50;;;;;;;;;;4974346;28;20129;-68
2023/09/20 10:21:25;;;;;;;1.60;1.25;;;;;;;;;;4977106;28;20186;-68
2023/09/20 10:24:00;;;;;;;4.80;1.40;;;;;;;;;;4974373;28;20393;-68
2023/09/20 10:26:27;;;;;;;3.88;1.35;;;;;;;;;;4972286;28;20688;-69
2023/09/20 10:28:59;;;;;;;2.92;1.27;;;;;;;;;;4979956;28;20525;-69
2023/09/20 10:31:26;;;;;;;3.78;1.52;;;;;;;;;;4973997;28;20125;-69
2023/09/20 10:33:55;;;;;;;1.85;1.30;;;;;;;;;;4973071;28;20035;-69
2023/09/20 10:36:27;;;;;;;2.28;1.30;;;;;;;;;;4982201;28;20113;-69
2023/09/20 10:39:17;;;;;;;2.55;1.35;;;;;;;;;;4977198;28;20023;-69
2023/09/20 10:41:43;;;;;;;5.40;1.40;;;;;;;;;;4984769;28;20047;-69
2023/09/20 10:44:26;;;;;;;2.15;1.20;;;;;;;;;;4975517;28;20046;-69
2023/09/20 10:46:53;;;;;;;1.63;1.17;;;;;;;;;;4968162;28;20449;-69
2023/09/20 10:49:37;;;;;;;3.85;1.30;;;;;;;;;;4975675;28;20189;-68
2023/09/20 10:52:03;;;;;;;3.95;1.67;;;;;;;;;;4971040;28;20034;-69
2023/09/20 10:54:36;;;;;;;3.50;1.60;;;;;;;;;;4969346;28;20085;-69
2023/09/20 10:57:06;;;;;;;2.85;1.17;;;;;;;;;;4977236;28;20026;-69
2023/09/20 10:59:32;;;;;;;4.18;1.70;;;;;;;;;;4973339;28;20053;-69
2023/09/20 11:02:13;;;;;;;4.78;1.80;;;;;;;;;;4975667;28;20078;-69
2023/09/20 11:04:39;;;;;;;2.88;1.30;;;;;;;;;;4976252;28;20114;-68
2023/09/20 11:07:07;;;;;;;2.33;1.20;;;;;;;;;;4977110;28;20038;-69
2023/09/20 11:09:38;;;;;;;4.07;1.33;;;;;;;;;;4971318;28;20042;-69
2023/09/20 11:12:08;;;;;;;2.83;1.55;;;;;;;;;;4975654;28;20436;-69
2023/09/20 11:14:41;;;;;;;3.10;1.50;;;;;;;;;;4973911;28;20050;-69
2023/09/20 11:17:08;;;;;;;2.78;1.27;;;;;;;;;;4974624;28;20133;-69
2023/09/20 11:19:34;;;;;;;3.38;1.60;;;;;;;;;;4980814;28;20072;-69
2023/09/20 11:22:00;;;;;;;2.15;1.30;;;;;;;;;;4974974;28;20143;-69
2023/09/20 11:24:26;;;;;;;2.40;1.10;;;;;;;;;;4971657;28;20587;-69
2023/09/20 11:26:53;;;;;;;4.75;1.40;;;;;;;;;;4975682;28;20092;-69
2023/09/20 11:29:19;;;;;;;1.88;1.10;;;;;;;;;;4976777;28;20121;-69
2023/09/20 11:31:48;;;;;;;4.85;1.58;;;;;;;;;;4974985;28;20225;-69
2023/09/20 11:34:14;;;;;;;4.80;1.50;;;;;;;;;;4976588;28;20039;-69
2023/09/20 11:36:44;;;;;;;1.95;1.23;;;;;;;;;;4977063;28;20524;-69
2023/09/20 11:39:14;;;;;;;4.38;1.40;;;;;;;;;;4977818;28;20113;-69
2023/09/20 11:41:42;;;;;;;1.83;1.30;;;;;;;;;;4977985;28;20054;-68
2023/09/20 11:44:08;;;;;;;3.65;1.15;;;;;;;;;;4986915;28;20107;-69
2023/09/20 11:46:34;;;;;;;2.67;1.70;;;;;;;;;;4975664;28;20090;-69
2023/09/20 11:49:05;;;;;;;3.47;1.20;;;;;;;;;;4984167;28;20069;-69
2023/09/20 11:51:31;;;;;;;2.90;1.23;;;;;;;;;;4977993;28;20050;-69
2023/09/20 11:53:58;;;;;;;1.95;1.20;;;;;;;;;;4977780;28;20122;-69
2023/09/20 11:56:29;;;;;;;3.50;1.42;;;;;;;;;;4979222;28;20045;-70
2023/09/20 11:58:59;;;;;;;3.75;1.38;;;;;;;;;;4974792;28;20093;-70
2023/09/20 12:01:29;;;;;;;4.22;1.30;;;;;;;;;;4976575;28;20500;-69
2023/09/20 12:03:55;;;;;;;2.53;1.25;;;;;;;;;;4981271;28;20126;-70
2023/09/20 12:06:21;;;;;;;4.72;1.40;;;;;;;;;;4987578;28;20026;-70
2023/09/20 12:08:47;;;;;;;2.05;1.20;;;;;;;;;;4976900;28;20029;-70
2023/09/20 12:11:13;;;;;;;2.58;1.30;;;;;;;;;;4975583;28;20042;-70
2023/09/20 12:13:41;;;;;;;4.65;1.30;;;;;;;;;;4972373;28;20062;-68
2023/09/20 12:16:08;;;;;;;2.58;1.20;;;;;;;;;;4972910;28;20042;-68
2023/09/20 12:18:33;;;;;;;3.65;1.40;;;;;;;;;;4973573;28;20035;-68
2023/09/20 12:20:59;;;;;;;1.88;1.25;;;;;;;;;;4976333;28;20475;-68
2023/09/20 12:23:24;;;;;;;3.03;1.45;;;;;;;;;;4975999;28;20065;-68
2023/09/20 12:25:50;;;;;;;4.60;1.40;;;;;;;;;;4968037;28;20054;-69
2023/09/20 12:28:16;;;;;;;3.35;1.63;;;;;;;;;;4975527;28;20042;-68
2023/09/20 12:30:42;;;;;;;1.90;1.63;;;;;;;;;;4969958;28;20122;-68
2023/09/20 12:33:08;;;;;;;5.03;2.03;;;;;;;;;;4975697;28;20113;-69
2023/09/20 12:35:34;;;;;;;7.43;2.42;;;;;;;;;;4971090;28;20022;-69
2023/09/20 12:38:00;;;;;;;4.10;1.77;;;;;;;;;;4974011;28;20038;-68
2023/09/20 12:40:27;;;;;;;3.17;1.45;;;;;;;;;;4971673;28;20047;-69
2023/09/20 12:42:52;;;;;;;2.15;1.65;;;;;;;;;;4979189;28;20950;-69
2023/09/20 12:45:19;;;;;;;4.38;1.90;;;;;;;;;;4971350;28;20031;-70
2023/09/20 12:47:44;;;;;;;5.05;2.08;;;;;;;;;;4972230;28;20108;-69
2023/09/20 12:50:13;;;;;;;2.58;1.50;;;;;;;;;;4975033;28;20042;-69
2023/09/20 12:52:39;;;;;;;3.10;1.77;;;;;;;;;;4975530;28;20042;-69
2023/09/20 12:55:05;;;;;;;3.20;1.33;;;;;;;;;;4967245;28;20595;-69
2023/09/20 12:57:30;;;;;;;3.38;1.60;;;;;;;;;;4972153;28;20045;-69
2023/09/20 12:59:57;;;;;;;2.25;1.40;;;;;;;;;;4973568;28;21283;-69
2023/09/20 13:02:27;;;;;;;4.05;1.65;;;;;;;;;;4967946;28;20038;-70
2023/09/20 13:04:53;;;;;;;3.00;1.60;;;;;;;;;;4971658;28;20042;-69
2023/09/20 13:07:18;;;;;;;4.20;1.77;;;;;;;;;;4971914;28;20042;-69
2023/09/20 13:09:44;;;;;;;4.38;1.73;;;;;;;;;;4967437;28;20039;-68
2023/09/20 13:12:11;;;;;;;4.15;1.67;;;;;;;;;;4974860;28;20649;-69
2023/09/20 13:14:36;;;;;;;4.28;1.63;;;;;;;;;;4969611;28;20022;-68
2023/09/20 13:17:02;;;;;;;3.88;1.70;;;;;;;;;;4971905;28;20476;-68
2023/09/20 13:19:27;;;;;;;4.03;1.90;;;;;;;;;;4971639;28;20042;-69
2023/09/20 13:21:52;;;;;;;3.78;1.55;;;;;;;;;;4973934;28;20432;-69
2023/09/20 13:24:18;;;;;;;4.75;1.80;;;;;;;;;;4972428;28;20081;-69
2023/09/20 13:26:44;;;;;;;4.22;1.77;;;;;;;;;;4975857;28;20109;-69
2023/09/20 13:29:11;;;;;;;3.67;1.63;;;;;;;;;;4980932;28;20034;-69
2023/09/20 13:31:38;;;;;;;5.15;2.10;;;;;;;;;;4982685;28;20045;-70
2023/09/20 13:34:04;;;;;;;3.95;1.90;;;;;;;;;;4968255;28;20034;-68
2023/09/20 13:36:32;;;;;;;3.90;1.70;;;;;;;;;;4971395;28;20034;-69
2023/09/20 13:38:57;;;;;;;5.03;1.85;;;;;;;;;;4974305;28;20038;-69
2023/09/20 13:41:24;;;;;;;3.40;2.13;;;;;;;;;;4973951;28;20096;-69
2023/09/20 13:43:50;;;;;;;4.85;1.75;;;;;;;;;;4969620;28;20176;-68
2023/09/20 13:46:17;;;;;;;2.05;1.52;;;;;;;;;;4970502;28;20559;-68
2023/09/20 13:48:46;;;;;;;6.55;1.85;;;;;;;;;;4970501;28;20039;-68
2023/09/20 13:51:16;;;;;;;4.07;1.70;;;;;;;;;;4976623;28;20184;-69
2023/09/20 13:53:42;;;;;;;5.78;2.13;;;;;;;;;;4972809;28;20034;-68
2023/09/20 13:56:07;;;;;;;5.03;1.90;;;;;;;;;;4972523;28;20057;-69
2023/09/20 13:58:33;;;;;;;3.97;2.70;;;;;;;;;;4969134;28;20042;-69
2023/09/20 14:01:05;;;;;;;4.43;1.52;;;;;;;;;;4970506;28;20047;-69
2023/09/20 14:03:32;;;;;;;3.25;1.90;;;;;;;;;;4967413;28;20039;-69
2023/09/20 14:05:58;;;;;;;3.80;1.80;;;;;;;;;;4971853;28;20027;-69
2023/09/20 14:08:23;;;;;;;5.38;1.70;;;;;;;;;;4965082;28;20117;-69
2023/09/20 14:10:48;;;;;;;2.85;1.80;;;;;;;;;;4978550;28;20100;-69
2023/09/20 14:13:14;;;;;;;4.00;2.15;;;;;;;;;;4970735;28;20038;-69
2023/09/20 14:15:39;;;;;;;2.45;1.75;;;;;;;;;;4972917;28;20055;-69
2023/09/20 14:18:05;;;;;;;2.90;1.60;;;;;;;;;;4974763;28;20534;-70
2023/09/20 14:20:30;;;;;;;3.75;2.03;;;;;;;;;;4998365;28;20114;-69
2023/09/20 14:22:56;;;;;;;3.55;2.15;;;;;;;;;;4975588;28;20042;-69
2023/09/20 14:25:26;;;;;;;6.05;1.95;;;;;;;;;;4974578;28;20090;-69
2023/09/20 14:27:53;;;;;;;5.85;1.90;;;;;;;;;;4968611;28;20626;-69
2023/09/20 14:30:18;;;;;;;4.15;1.58;;;;;;;;;;4969226;28;20113;-69
2023/09/20 14:32:48;;;;;;;7.45;2.03;;;;;;;;;;4974904;28;20049;-69
2023/09/20 14:35:15;;;;;;;5.75;2.00;;;;;;;;;;4975474;28;20054;-69
2023/09/20 14:37:45;;;;;;;4.65;1.70;;;;;;;;;;4975784;28;20043;-69
2023/09/20 14:40:18;;;;;;;4.13;1.90;;;;;;;;;;4975319;28;20517;-69
2023/09/20 14:42:49;;;;;;;5.28;1.90;;;;;;;;;;4980371;28;20046;-69
2023/09/20 14:45:22;;;;;;;5.00;2.05;;;;;;;;;;4973266;28;20042;-69
2023/09/20 14:47:51;;;;;;;4.18;2.00;;;;;;;;;;4979981;28;20030;-69
2023/09/20 14:50:17;;;;;;;4.40;1.90;;;;;;;;;;4978572;28;20599;-68
2023/09/20 14:52:44;;;;;;;3.13;1.60;;;;;;;;;;4985329;28;20061;-68
2023/09/20 14:55:12;;;;;;;4.70;2.00;;;;;;;;;;4989736;28;20034;-69
2023/09/20 14:57:44;;;;;;;2.67;1.70;;;;;;;;;;4982714;28;20053;-70
2023/09/20 15:00:16;;;;;;;3.03;1.83;;;;;;;;;;4975074;28;20022;-70
2023/09/20 15:02:46;;;;;;;5.53;1.80;;;;;;;;;;4972111;28;20027;-69
2023/09/20 15:05:13;;;;;;;2.90;1.40;;;;;;;;;;4974175;28;20042;-70
2023/09/20 15:07:39;;;;;;;2.45;1.60;;;;;;;;;;4974459;28;20081;-70
2023/09/20 15:10:10;;;;;;;2.72;1.40;;;;;;;;;;4970811;28;20065;-70
2023/09/20 15:12:38;;;;;;;2.70;1.83;;;;;;;;;;4976626;28;20121;-70
2023/09/20 15:15:04;;;;;;;3.75;1.65;;;;;;;;;;4972256;28;20077;-70
2023/09/20 15:17:30;;;;;;;2.33;1.55;;;;;;;;;;4977873;28;20030;-70
2023/09/20 15:19:55;;;;;;;3.92;1.60;;;;;;;;;;4973040;28;20046;-70
2023/09/20 15:22:23;;;;;;;4.30;1.60;;;;;;;;;;4974477;28;20125;-70
2023/09/20 15:24:52;;;;;;;3.78;1.50;;;;;;;;;;4973439;28;20050;-68
2023/09/20 15:27:17;;;;;;;2.45;1.45;;;;;;;;;;4972152;28;20464;-70